Time;durP1;ratioP1;P1;durP2;ratioP2;P2;SDS_P1;SDS_P2;PMS_P1;PMS_P2;Temp;Humidity;BMP_temperature;BMP_pressure;BME280_temperature;BME280_humidity;BME280_pressure;Samples;Min_cycle;Max_cycle;Signal;HPM_P1;HPM_P2
2022/04/25 00:01:26;;;;;;;120.53;12.50;;;;;;;6.64;86.26;97582.19;2237897;80;20944;-83
2022/04/25 00:05:26;;;;;;;53.20;10.93;;;;;;;6.53;85.43;97574.77;2265186;76;22413;-81
2022/04/25 00:08:27;;;;;;;26.63;12.57;;;;;;;6.53;85.43;97574.77;2231938;78;21015;-82
2022/04/25 00:11:27;;;;;;;57.80;13.50;;;;;;;6.48;85.46;97582.93;2231811;79;21160;-82
2022/04/25 00:14:27;;;;;;;36.23;11.70;;;;;;;6.43;85.70;97582.03;2232288;80;20996;-83
2022/04/25 00:17:28;;;;;;;72.40;13.63;;;;;;;6.40;85.72;97578.12;2231773;80;21653;-82
2022/04/25 00:20:28;;;;;;;26.40;11.93;;;;;;;6.37;86.11;97581.55;2232064;80;21035;-83
2022/04/25 00:23:29;;;;;;;17.23;11.30;;;;;;;6.32;85.60;97580.64;2232055;80;21003;-82
2022/04/25 00:26:29;;;;;;;23.47;13.37;;;;;;;6.27;85.57;97577.58;2232088;80;20980;-82
2022/04/25 00:29:29;;;;;;;20.47;12.30;;;;;;;6.24;85.91;97581.01;2231905;80;20995;-82
2022/04/25 00:32:30;;;;;;;107.73;12.57;;;;;;;6.22;86.04;97579.26;2231452;80;21008;-82
2022/04/25 00:35:30;;;;;;;48.77;9.60;;;;;;;6.21;85.87;97574.94;2231720;80;21011;-83
2022/04/25 00:38:31;;;;;;;30.17;10.50;;;;;;;6.15;85.54;97578.34;2231906;80;21000;-82
2022/04/25 00:41:31;;;;;;;14.77;10.30;;;;;;;6.10;85.35;97573.55;2231388;80;21384;-82
2022/04/25 00:44:32;;;;;;;11.37;9.00;;;;;;;6.03;85.48;97571.29;2231895;80;21091;-83
2022/04/25 00:47:32;;;;;;;23.07;10.40;;;;;;;6.01;85.39;97574.30;2232252;80;20971;-83
2022/04/25 00:50:32;;;;;;;14.07;8.80;;;;;;;5.95;85.11;97564.30;2232337;77;21039;-83
2022/04/25 00:53:33;;;;;;;28.50;10.07;;;;;;;5.90;84.95;97560.80;2232304;80;20976;-83
2022/04/25 00:56:33;;;;;;;18.17;9.70;;;;;;;5.86;84.96;97557.70;2232045;80;20996;-82
2022/04/25 00:59:34;;;;;;;21.30;8.47;;;;;;;5.82;85.13;97552.92;2231939;80;20982;-82
2022/04/25 01:02:34;;;;;;;31.03;9.07;;;;;;;5.76;84.89;97556.75;2232139;77;21002;-83
2022/04/25 01:05:35;;;;;;;85.40;9.60;;;;;;;5.73;85.10;97546.36;2215283;80;21365;-83
2022/04/25 01:08:37;;;;;;;118.00;9.90;;;;;;;5.69;84.81;97551.93;2214588;81;20996;-82
2022/04/25 01:11:35;;;;;;;17.73;9.00;;;;;;;5.65;84.59;97554.05;2214378;81;20888;-82
2022/04/25 01:14:36;;;;;;;12.53;8.50;;;;;;;5.58;84.39;97561.73;2214375;81;21012;-82
2022/04/25 01:17:36;;;;;;;11.90;8.20;;;;;;;5.52;84.49;97561.23;2213772;80;20948;-82
2022/04/25 01:20:37;;;;;;;84.87;9.00;;;;;;;5.47;84.27;97568.08;2213473;81;20957;-82
2022/04/25 01:30:14;;;;;;;10.37;8.27;;;;;;;5.34;84.07;97555.85;2213812;80;21004;-83
2022/04/25 01:33:14;;;;;;;11.07;8.67;;;;;;;5.30;84.14;97560.13;2212552;80;21461;-82
2022/04/25 01:36:15;;;;;;;9.57;8.23;;;;;;;5.25;84.28;97551.86;2213373;81;20919;-82
2022/04/25 01:39:15;;;;;;;11.47;7.87;;;;;;;5.21;84.08;97556.55;2212768;80;21304;-83
2022/04/25 01:42:15;;;;;;;10.20;8.53;;;;;;;5.16;83.88;97559.48;2212697;80;20991;-82
2022/04/25 01:45:16;;;;;;;20.50;7.23;;;;;;;5.12;83.80;97568.48;2213229;81;20956;-82
2022/04/25 01:48:16;;;;;;;9.40;7.70;;;;;;;5.01;83.46;97562.73;2213005;81;20973;-81
2022/04/25 01:51:17;;;;;;;7.80;6.77;;;;;;;4.99;83.75;97565.30;2213434;81;20928;-83
2022/04/25 01:54:17;;;;;;;11.63;7.07;;;;;;;4.97;83.82;97573.47;2213142;80;20960;-83
2022/04/25 01:57:18;;;;;;;9.40;8.10;;;;;;;4.99;84.15;97569.61;2213567;81;20972;-80
2022/04/25 02:00:18;;;;;;;8.67;7.00;;;;;;;5.02;84.37;97574.39;2212876;80;21295;-83
2022/04/25 02:03:19;;;;;;;8.00;7.23;;;;;;;5.04;84.12;97576.58;2213147;80;21028;-83
2022/04/25 02:06:19;;;;;;;7.50;6.70;;;;;;;5.10;84.59;97584.84;2214014;81;20935;-83
2022/04/25 02:09:20;;;;;;;11.97;8.57;;;;;;;5.16;84.35;97578.88;2213627;81;21316;-82
2022/04/25 02:12:19;;;;;;;9.40;7.87;;;;;;;5.25;84.52;97588.08;2213591;80;20913;-83
2022/04/25 02:15:20;;;;;;;12.17;7.97;;;;;;;5.29;84.41;97588.56;2214188;80;20960;-83
2022/04/25 02:18:20;;;;;;;9.43;8.10;;;;;;;5.33;84.57;97591.20;2213206;80;20976;-82
2022/04/25 02:21:21;;;;;;;10.30;8.30;;;;;;;5.39;84.67;97602.06;2212868;80;20993;-83
2022/04/25 02:24:21;;;;;;;7.93;6.77;;;;;;;5.47;84.95;97602.16;2213551;81;20959;-83
2022/04/25 02:27:21;;;;;;;8.83;6.70;;;;;;;5.53;84.56;97608.70;2213521;81;20976;-83
2022/04/25 02:30:22;;;;;;;12.33;8.13;;;;;;;5.59;84.71;97605.75;2212783;80;20917;-82
2022/04/25 02:33:22;;;;;;;11.03;8.00;;;;;;;5.62;84.60;97601.91;2213849;80;21031;-84
2022/04/25 02:36:24;;;;;;;8.77;7.50;;;;;;;5.67;84.56;97600.23;2214227;79;20964;-80
2022/04/25 02:39:23;;;;;;;11.40;8.77;;;;;;;5.68;84.45;97606.28;2213599;80;20948;-84
2022/04/25 02:42:23;;;;;;;10.10;8.43;;;;;;;5.70;84.74;97609.33;2214308;80;20956;-80
2022/04/25 02:45:24;;;;;;;10.13;8.97;;;;;;;5.76;84.76;97602.92;2212373;80;20940;-83
2022/04/25 02:48:24;;;;;;;11.97;8.90;;;;;;;5.81;84.81;97602.11;2213804;81;20992;-84
2022/04/25 02:51:25;;;;;;;12.60;8.07;;;;;;;5.83;84.80;97602.99;2214015;80;20983;-84
2022/04/25 02:54:25;;;;;;;11.80;8.30;;;;;;;5.83;84.50;97601.27;2213176;80;20973;-86
2022/04/25 02:57:25;;;;;;;9.83;7.87;;;;;;;5.77;84.06;97603.80;2212494;81;20936;-86
2022/04/25 03:00:26;;;;;;;8.97;7.90;;;;;;;5.67;83.91;97611.89;2213831;80;21011;-83
2022/04/25 03:03:34;;;;;;;9.00;6.87;;;;;;;5.60;84.01;97607.91;2213012;80;21371;-83
2022/04/25 03:06:34;;;;;;;11.47;8.27;;;;;;;5.52;83.91;97625.95;2211952;80;20969;-83
2022/04/25 03:09:38;;;;;;;12.03;7.67;;;;;;;5.48;84.14;97625.89;2212190;80;20953;-82
2022/04/25 03:12:38;;;;;;;14.20;7.37;;;;;;;5.48;84.23;97628.05;2212164;81;20956;-85
2022/04/25 03:15:39;;;;;;;11.17;7.80;;;;;;;5.47;84.14;97625.02;2212411;80;20960;-86
2022/04/25 03:18:39;;;;;;;12.17;7.80;;;;;;;5.44;83.92;97621.97;2211831;80;20956;-86
2022/04/25 03:24:59;;;;;;;9.30;7.03;;;;;;;5.45;84.25;97628.02;2330472;75;22550;-85
2022/04/25 03:27:59;;;;;;;9.20;7.70;;;;;;;5.36;84.14;97630.48;2263835;78;20978;-86
2022/04/25 03:30:59;;;;;;;10.67;8.10;;;;;;;5.36;84.15;97628.77;2264228;79;20887;-84
2022/04/25 03:34:00;;;;;;;11.03;8.33;;;;;;;5.36;84.34;97632.65;2262354;79;20923;-84
2022/04/25 03:37:00;;;;;;;10.43;7.53;;;;;;;5.36;84.16;97633.94;2263016;79;20975;-85
2022/04/25 03:40:01;;;;;;;11.67;8.73;;;;;;;5.37;84.23;97627.05;2262298;79;20939;-82
2022/04/25 03:43:01;;;;;;;11.90;8.63;;;;;;;5.38;84.32;97628.78;2262241;78;21001;-83
2022/04/25 03:46:02;;;;;;;11.73;7.67;;;;;;;5.38;84.09;97620.59;2262662;79;20926;-82
2022/04/25 03:49:02;;;;;;;21.97;7.37;;;;;;;5.31;83.73;97621.37;2262313;79;20926;-82
2022/04/25 03:52:02;;;;;;;9.30;7.57;;;;;;;5.29;83.73;97626.08;2262422;79;20947;-82
2022/04/25 03:58:22;;;;;;;8.13;7.30;;;;;;;5.26;84.02;97627.34;2261891;78;20954;-82
2022/04/25 04:01:22;;;;;;;7.80;6.87;;;;;;;5.26;84.11;97632.51;2262262;79;20969;-82
2022/04/25 04:04:23;;;;;;;18.93;7.67;;;;;;;5.29;84.13;97632.55;2261876;79;20957;-83
2022/04/25 04:07:23;;;;;;;9.07;6.77;;;;;;;5.30;83.95;97635.16;2262886;79;20939;-82
2022/04/25 04:10:24;;;;;;;8.97;6.73;;;;;;;5.35;84.04;97642.55;2262112;79;20970;-82
2022/04/25 04:13:25;;;;;;;7.67;5.57;;;;;;;5.39;83.86;97640.88;2261289;79;20911;-83
2022/04/25 04:16:24;;;;;;;10.77;7.53;;;;;;;5.43;83.63;97639.64;2261867;79;20978;-82
2022/04/25 04:19:25;;;;;;;11.20;7.50;;;;;;;5.48;83.70;97648.75;2260589;79;20946;-82
2022/04/25 04:22:25;;;;;;;8.73;6.97;;;;;;;5.56;84.12;97649.72;2260921;77;20998;-82
2022/04/25 04:25:26;;;;;;;8.17;7.20;;;;;;;5.65;83.67;97647.24;2260740;79;20934;-82
2022/04/25 04:28:26;;;;;;;9.43;8.50;;;;;;;5.74;83.58;97651.23;2260611;79;20992;-84
2022/04/25 04:31:26;;;;;;;10.47;8.60;;;;;;;5.80;83.57;97657.34;2261320;79;20876;-82
2022/04/25 04:34:27;;;;;;;8.17;6.67;;;;;;;5.80;83.53;97652.16;2261089;79;21854;-82
2022/04/25 04:37:28;;;;;;;8.90;7.90;;;;;;;5.80;83.55;97655.62;2259721;79;20938;-81
2022/04/25 04:40:30;;;;;;;10.40;8.50;;;;;;;5.86;83.72;97658.70;2260602;79;20982;-81
2022/04/25 04:43:31;;;;;;;9.93;7.93;;;;;;;5.93;84.09;97669.61;2259789;79;21045;-81
2022/04/25 04:46:31;;;;;;;8.07;7.13;;;;;;;6.03;84.06;97662.38;2259615;79;21013;-81
2022/04/25 04:49:32;;;;;;;14.83;9.57;;;;;;;6.21;84.43;97669.08;2259341;79;20950;-84
2022/04/25 04:52:32;;;;;;;11.43;7.87;;;;;;;6.39;84.65;97670.56;2259920;79;20927;-84
2022/04/25 04:55:34;;;;;;;10.90;8.30;;;;;;;6.57;84.47;97671.16;2259962;79;20985;-85
2022/04/25 04:58:33;;;;;;;11.37;8.93;;;;;;;6.76;84.45;97670.88;2260642;79;20962;-85
2022/04/25 05:01:34;;;;;;;11.43;8.50;;;;;;;6.94;84.47;97676.24;2259544;79;20899;-85
2022/04/25 05:04:34;;;;;;;17.50;13.03;;;;;;;7.10;84.31;97673.33;2259161;79;21009;-85
2022/04/25 05:07:35;;;;;;;21.40;13.93;;;;;;;7.24;84.11;97676.87;2259682;79;20934;-84
2022/04/25 05:10:34;;;;;;;15.43;11.17;;;;;;;7.39;84.12;97672.20;2260168;79;20974;-85
2022/04/25 05:13:35;;;;;;;14.10;11.37;;;;;;;7.55;84.42;97670.56;2261347;79;20971;-84
2022/04/25 05:16:35;;;;;;;15.30;10.40;;;;;;;7.72;84.30;97665.44;2262841;79;20934;-85
2022/04/25 05:19:36;;;;;;;14.77;11.70;;;;;;;7.83;83.97;97666.39;2260574;79;21418;-85
2022/04/25 05:22:38;;;;;;;17.17;12.57;;;;;;;7.94;84.03;97664.27;2261087;78;21341;-84
2022/04/25 05:25:40;;;;;;;15.60;11.87;;;;;;;8.06;83.99;97671.23;2227106;79;21018;-85
2022/04/25 05:28:40;;;;;;;16.43;11.70;;;;;;;8.20;83.86;97668.67;2255949;79;21006;-84
2022/04/25 05:31:43;;;;;;;19.93;12.93;;;;;;;8.34;83.74;97671.33;2256160;79;21652;-85
2022/04/25 05:34:45;;;;;;;14.60;11.43;;;;;;;8.51;83.73;97670.48;2223686;79;21025;-85
2022/04/25 05:37:50;;;;;;;17.57;13.37;;;;;;;8.80;83.90;97665.77;2186928;79;20975;-85
2022/04/25 05:40:51;;;;;;;19.40;14.37;;;;;;;9.04;83.76;97674.88;2253706;79;20965;-84
2022/04/25 05:43:51;;;;;;;27.10;15.87;;;;;;;9.20;83.91;97667.47;2253457;79;20943;-84
2022/04/25 05:53:32;;;;;;;15.37;11.97;;;;;;;9.55;83.35;97683.06;2100944;83;20993;-87
2022/04/25 05:56:32;;;;;;;19.20;12.30;;;;;;;9.56;83.17;97682.19;2107346;83;20972;-86
2022/04/25 05:59:37;;;;;;;18.20;12.00;;;;;;;9.62;83.15;97686.95;2131872;83;20985;-86
2022/04/25 06:02:48;;;;;;;26.10;19.37;;;;;;;9.83;83.93;97681.66;2079342;83;21452;-87
2022/04/25 06:05:52;;;;;;;32.93;24.03;;;;;;;10.19;84.34;97688.02;2131107;83;21072;-86
2022/04/25 06:08:52;;;;;;;32.30;24.43;;;;;;;10.52;84.37;97691.37;2132310;83;21052;-87
2022/04/25 06:11:55;;;;;;;34.07;25.80;;;;;;;10.87;84.02;97687.65;2132136;83;20970;-86
2022/04/25 06:15:13;;;;;;;34.40;25.50;;;;;;;11.18;82.99;97691.73;2095628;83;21077;-85
2022/04/25 06:18:15;;;;;;;40.60;22.93;;;;;;;11.44;82.60;97687.16;2106278;83;21001;-81
2022/04/25 06:21:18;;;;;;;33.00;23.70;;;;;;;11.79;81.32;97684.64;2130769;83;21009;-85
2022/04/25 06:24:18;;;;;;;32.98;25.02;;;;;;;12.07;80.59;97680.81;2120839;83;21496;-84
2022/04/25 06:27:19;;;;;;;31.27;21.50;;;;;;;12.32;78.54;97684.00;2245426;79;20994;-84
2022/04/25 06:30:28;;;;;;;33.67;23.35;;;;;;;12.46;77.42;97685.56;2259706;79;20977;-84
2022/04/25 06:33:24;;;;;;;26.77;21.12;;;;;;;12.67;77.04;97697.91;2229017;79;20982;-86
2022/04/25 06:36:25;;;;;;;24.32;19.82;;;;;;;12.93;76.46;97691.41;2259911;79;20990;-84
2022/04/25 06:39:25;;;;;;;33.95;25.02;;;;;;;13.17;74.79;97691.06;2259809;79;20962;-84
2022/04/25 06:42:26;;;;;;;28.42;25.20;;;;;;;13.26;75.28;97696.59;2259087;79;20927;-84
2022/04/25 06:45:26;;;;;;;20.77;18.37;;;;;;;13.54;74.97;97699.59;2260048;79;20938;-85
2022/04/25 06:48:26;;;;;;;19.92;17.80;;;;;;;13.72;73.49;97694.02;2259015;79;21005;-86
2022/04/25 06:51:27;;;;;;;20.77;16.57;;;;;;;13.87;71.91;97698.09;2258461;79;21014;-86
2022/04/25 06:54:27;;;;;;;20.02;15.85;;;;;;;13.94;71.23;97701.05;2259602;79;21169;-83
2022/04/25 06:57:34;;;;;;;18.57;16.20;;;;;;;14.12;70.36;97695.88;2259480;79;20989;-86
2022/04/25 07:00:34;;;;;;;16.48;14.78;;;;;;;14.14;69.90;97699.34;2259540;79;20914;-85
2022/04/25 07:03:35;;;;;;;16.90;13.43;;;;;;;14.23;68.29;97705.70;2259384;79;21014;-86
2022/04/25 07:06:37;;;;;;;17.05;14.43;;;;;;;14.34;68.74;97705.89;2227544;79;21073;-87
2022/04/25 07:09:42;;;;;;;15.00;13.50;;;;;;;14.42;68.44;97701.83;2259690;79;21034;-84
2022/04/25 07:12:46;;;;;;;16.93;13.10;;;;;;;14.64;68.12;97707.47;2228435;79;21006;-86
2022/04/25 07:15:46;;;;;;;18.40;13.43;;;;;;;14.72;65.46;97703.36;2260140;79;20998;-85
2022/04/25 07:18:47;;;;;;;13.50;12.10;;;;;;;14.69;66.58;97713.48;2260328;79;20953;-84
2022/04/25 07:31:44;;;;;;;10.58;9.13;;;;;;;14.82;64.87;97711.48;2252223;79;20927;-85
2022/04/25 07:34:46;;;;;;;11.30;9.28;;;;;;;14.80;62.90;97706.70;2252626;79;21010;-85
2022/04/25 07:37:47;;;;;;;10.40;9.30;;;;;;;14.83;63.13;97713.20;2254348;79;21002;-84
2022/04/25 07:40:47;;;;;;;12.37;10.30;;;;;;;14.90;63.15;97712.16;2224204;79;21510;-84
2022/04/25 07:43:48;;;;;;;9.85;8.85;;;;;;;15.04;62.91;97716.64;2254443;78;21022;-82
2022/04/25 07:46:50;;;;;;;11.78;10.55;;;;;;;15.15;61.94;97724.27;2254162;79;20959;-83
2022/04/25 07:49:48;;;;;;;9.58;8.65;;;;;;;15.23;63.17;97724.49;2254123;79;20919;-85
2022/04/25 07:52:48;;;;;;;10.35;8.75;;;;;;;15.53;62.72;97716.73;2253200;79;20947;-84
2022/04/25 07:55:51;;;;;;;11.60;9.58;;;;;;;15.45;60.27;97722.19;2253531;79;21058;-85
2022/04/25 07:58:53;;;;;;;;;;;;;;;15.21;61.60;97730.23;2183646;81;21026;-82
2022/04/25 08:01:53;;;;;;;13.32;9.48;;;;;;;15.07;62.06;97728.84;2245437;79;20390;-85
2022/04/25 08:04:54;;;;;;;9.35;7.90;;;;;;;15.26;61.91;97728.36;2254085;79;21913;-85
2022/04/25 08:07:54;;;;;;;8.03;7.22;;;;;;;15.61;60.33;97725.36;2253954;79;20958;-83
2022/04/25 08:10:58;;;;;;;8.55;6.92;;;;;;;16.03;60.85;97725.11;2205957;81;21464;-83
2022/04/25 08:20:39;;;;;;;10.18;6.95;;;;;;;16.16;57.99;97721.23;2253591;79;21006;-83
2022/04/25 08:23:45;;;;;;;7.30;6.57;;;;;;;16.34;58.61;97726.42;2251850;77;21007;-83
2022/04/25 08:26:45;;;;;;;7.95;5.85;;;;;;;16.57;56.85;97729.28;2224670;79;21018;-84
2022/04/25 08:29:48;;;;;;;8.75;7.65;;;;;;;16.86;56.58;97740.28;2247288;79;20953;-83
2022/04/25 08:32:48;;;;;;;9.28;7.75;;;;;;;17.00;56.63;97735.45;2246247;79;21005;-84
2022/04/25 08:35:53;;;;;;;9.03;8.10;;;;;;;16.78;57.22;97741.84;2224107;79;20983;-84
2022/04/25 08:38:54;;;;;;;8.10;7.30;;;;;;;16.45;58.16;97737.05;2198942;79;21719;-82
2022/04/25 08:41:57;;;;;;;9.05;6.90;;;;;;;16.19;57.04;97744.84;2245861;79;20994;-83
2022/04/25 08:44:57;;;;;;;7.67;6.55;;;;;;;16.03;57.32;97739.59;2246732;79;21042;-85
2022/04/25 08:47:55;;;;;;;9.75;7.70;;;;;;;16.12;56.54;97740.20;2246213;79;20950;-83
2022/04/25 08:50:56;;;;;;;9.28;7.42;;;;;;;16.29;57.50;97739.72;2246905;79;20971;-83
2022/04/25 08:53:59;;;;;;;9.27;7.90;;;;;;;16.53;57.09;97750.90;2246483;79;20993;-82
2022/04/25 08:57:00;;;;;;;10.35;9.35;;;;;;;16.57;55.97;97743.77;2246070;79;20975;-84
2022/04/25 09:00:04;;;;;;;8.40;7.40;;;;;;;16.65;56.68;97735.22;2223748;79;21065;-84
2022/04/25 09:03:03;;;;;;;8.30;7.45;;;;;;;16.86;56.20;97745.10;2245593;79;21031;-84
2022/04/25 09:06:08;;;;;;;9.75;7.28;;;;;;;17.32;56.30;97744.10;2245558;79;20996;-84
2022/04/25 09:09:05;;;;;;;7.05;6.30;;;;;;;17.66;54.68;97747.41;2246673;79;21352;-84
2022/04/25 09:12:13;;;;;;;11.45;7.40;;;;;;;17.92;54.15;97739.91;2245854;79;20939;-86
2022/04/25 09:15:12;;;;;;;6.85;6.25;;;;;;;18.30;53.90;97739.89;2245371;79;21001;-86
2022/04/25 09:18:12;;;;;;;43.65;10.25;;;;;;;18.92;52.66;97740.66;2245537;79;20938;-81
2022/04/25 09:21:12;;;;;;;10.48;6.90;;;;;;;19.19;51.96;97749.31;2246161;79;20950;-81
2022/04/25 09:24:13;;;;;;;7.20;6.55;;;;;;;19.47;51.40;97750.38;2247992;77;20965;-80
2022/04/25 09:27:13;;;;;;;8.63;7.30;;;;;;;19.61;50.31;97746.73;2252816;79;20979;-81
2022/04/25 09:30:14;;;;;;;7.97;6.95;;;;;;;19.44;50.35;97756.26;2252710;78;20970;-81
2022/04/25 09:33:14;;;;;;;59.48;10.50;;;;;;;19.20;50.73;97754.14;2253247;79;20942;-81
2022/04/25 09:36:15;;;;;;;24.18;7.33;;;;;;;19.10;51.26;97751.00;2253683;79;21026;-84
2022/04/25 09:39:15;;;;;;;7.87;6.33;;;;;;;19.13;51.16;97756.62;2253560;79;20943;-83
2022/04/25 09:42:15;;;;;;;39.90;8.60;;;;;;;19.19;50.97;97755.06;2252972;78;20935;-85
2022/04/25 09:45:16;;;;;;;21.93;7.25;;;;;;;19.13;50.47;97750.88;2253156;79;21350;-83
2022/04/25 09:48:16;;;;;;;8.68;6.72;;;;;;;19.07;50.03;97751.09;2253087;79;20978;-84
2022/04/25 09:51:17;;;;;;;6.78;6.08;;;;;;;19.02;50.30;97752.59;2253619;79;20998;-80
2022/04/25 09:54:17;;;;;;;8.08;5.28;;;;;;;18.77;48.89;97755.33;2253021;79;21042;-85
2022/04/25 09:57:18;;;;;;;7.78;5.62;;;;;;;18.92;50.01;97759.63;2253132;79;21005;-84
2022/04/25 10:00:18;;;;;;;7.17;5.12;;;;;;;19.17;50.04;97756.45;2252272;79;20978;-83
2022/04/25 10:03:18;;;;;;;41.23;7.25;;;;;;;19.27;49.56;97756.48;2251967;79;21042;-84
2022/04/25 10:06:19;;;;;;;6.80;5.72;;;;;;;19.42;48.56;97762.94;2251873;79;21010;-84
2022/04/25 10:09:22;;;;;;;9.88;6.40;;;;;;;19.67;48.69;97753.55;2253623;79;20947;-84
2022/04/25 10:12:26;;;;;;;581.35;53.95;;;;;;;19.96;49.21;97749.70;2197120;79;21010;-84
2022/04/25 10:15:26;;;;;;;15.32;6.97;;;;;;;20.21;47.78;97750.35;2251729;79;21040;-83
2022/04/25 10:18:26;;;;;;;6.22;5.62;;;;;;;20.03;46.98;97754.67;2252849;79;21366;-81
2022/04/25 10:21:29;;;;;;;12.25;6.35;;;;;;;19.82;47.49;97750.72;2252956;79;21299;-85
2022/04/25 10:24:27;;;;;;;6.70;5.60;;;;;;;20.09;47.39;97750.89;2252481;77;20994;-85
2022/04/25 10:27:28;;;;;;;8.85;7.83;;;;;;;20.13;46.68;97748.50;2253464;79;20989;-81
2022/04/25 10:30:28;;;;;;;6.78;4.45;;;;;;;20.13;46.58;97744.53;2253943;79;21350;-85
2022/04/25 10:33:28;;;;;;;5.87;4.25;;;;;;;20.04;46.71;97748.91;2253067;79;20923;-84
2022/04/25 10:36:32;;;;;;;4.70;4.30;;;;;;;19.71;46.91;97743.23;2221359;79;21014;-84
2022/04/25 10:39:31;;;;;;;4.92;4.03;;;;;;;19.22;47.22;97752.30;2252539;79;20974;-83
2022/04/25 10:45:51;;;;;;;8.23;5.30;;;;;;;18.15;48.85;97758.91;2253361;79;20959;-83
2022/04/25 10:48:54;;;;;;;7.80;6.58;;;;;;;17.59;49.76;97763.02;2253728;79;20966;-86
2022/04/25 10:51:53;;;;;;;10.23;9.20;;;;;;;16.94;50.95;97772.55;2253432;79;21016;-84
2022/04/25 10:54:56;;;;;;;15.83;12.80;;;;;;;16.30;54.91;97779.62;2253424;79;21025;-83
2022/04/25 10:57:56;;;;;;;17.30;14.87;;;;;;;15.83;58.14;97778.28;2221818;79;20975;-83
2022/04/25 11:00:58;;;;;;;16.50;13.83;;;;;;;15.40;60.67;97786.32;2254329;79;20954;-84
2022/04/25 11:04:06;;;;;;;18.23;15.58;;;;;;;15.05;61.93;97782.75;2223047;79;20931;-82
2022/04/25 11:07:02;;;;;;;16.62;14.85;;;;;;;14.83;64.67;97790.25;2221358;79;21037;-83
2022/04/25 11:10:03;;;;;;;17.73;15.93;;;;;;;14.66;65.06;97785.78;2253434;79;20935;-82
2022/04/25 11:13:04;;;;;;;19.27;14.60;;;;;;;14.57;66.59;97793.85;2253190;79;21382;-83
2022/04/25 11:16:05;;;;;;;17.90;15.53;;;;;;;14.41;67.27;97795.89;2253086;78;20986;-80
2022/04/25 11:19:07;;;;;;;16.27;14.60;;;;;;;14.23;67.45;97805.00;2253875;79;20978;-81
2022/04/25 11:22:09;;;;;;;16.20;13.93;;;;;;;14.17;68.05;97801.62;2253482;79;20970;-83
2022/04/25 11:25:11;;;;;;;16.05;14.28;;;;;;;14.18;68.42;97800.28;2220177;79;20964;-81
2022/04/25 11:28:12;;;;;;;14.63;13.15;;;;;;;14.20;68.62;97810.30;2246110;79;20998;-80
2022/04/25 11:31:12;;;;;;;13.70;12.35;;;;;;;14.24;69.09;97814.60;2246397;79;21018;-82
2022/04/25 11:34:13;;;;;;;13.98;12.63;;;;;;;14.20;69.03;97812.06;2246304;79;20904;-80
2022/04/25 11:37:13;;;;;;;13.95;12.60;;;;;;;14.26;69.10;97817.20;2246955;79;21393;-81
2022/04/25 11:40:14;;;;;;;14.28;12.82;;;;;;;14.38;68.80;97813.47;2245818;79;21022;-81
2022/04/25 11:43:13;;;;;;;12.33;11.18;;;;;;;14.53;69.41;97815.38;2245904;79;21037;-80
2022/04/25 11:46:14;;;;;;;12.88;11.70;;;;;;;14.69;69.50;97809.80;2245230;79;21043;-81
2022/04/25 11:49:14;;;;;;;12.10;10.93;;;;;;;14.81;68.35;97809.58;2245038;79;20974;-82
2022/04/25 11:52:20;;;;;;;12.50;11.18;;;;;;;14.90;67.83;97809.38;2245535;79;20999;-81
2022/04/25 11:55:18;;;;;;;15.03;10.82;;;;;;;14.96;67.78;97816.67;2246283;79;20998;-82
2022/04/25 11:58:18;;;;;;;11.28;10.18;;;;;;;15.10;67.91;97814.19;2245187;79;21030;-81
2022/04/25 12:01:19;;;;;;;10.70;9.68;;;;;;;15.33;67.73;97816.29;2245449;79;20935;-81
2022/04/25 12:04:19;;;;;;;9.98;9.08;;;;;;;15.49;66.31;97815.02;2245533;79;20990;-83
2022/04/25 12:07:19;;;;;;;9.25;8.40;;;;;;;15.52;64.54;97824.16;2244970;79;20944;-82
2022/04/25 12:17:00;;;;;;;11.00;9.95;;;;;;;15.38;64.03;97832.83;2244286;78;20947;-80
2022/04/25 12:20:04;;;;;;;11.20;9.88;;;;;;;15.29;64.95;97836.08;2223323;79;20970;-81
2022/04/25 12:23:02;;;;;;;11.95;9.60;;;;;;;15.17;63.57;97837.67;2223227;79;21681;-84
2022/04/25 12:26:03;;;;;;;9.28;8.38;;;;;;;14.95;63.73;97832.48;2253400;77;21229;-81
2022/04/25 12:29:05;;;;;;;10.72;9.70;;;;;;;14.74;64.21;97840.36;2227637;79;21395;-82
2022/04/25 12:32:09;;;;;;;10.70;9.70;;;;;;;14.55;64.64;97843.78;2260191;79;20966;-83
2022/04/25 12:35:06;;;;;;;11.83;9.13;;;;;;;14.44;65.16;97845.75;2259791;79;20919;-81
2022/04/25 12:38:06;;;;;;;10.30;9.35;;;;;;;14.33;65.73;97844.61;2260420;79;20852;-81
2022/04/25 12:41:07;;;;;;;12.30;10.05;;;;;;;14.33;65.67;97852.48;2260592;79;20935;-82
2022/04/25 12:44:07;;;;;;;10.65;9.65;;;;;;;14.30;65.51;97850.36;2258195;79;20994;-83
2022/04/25 12:47:08;;;;;;;10.25;9.25;;;;;;;14.25;64.56;97849.14;2257912;79;20986;-81
2022/04/25 12:50:08;;;;;;;11.30;10.20;;;;;;;14.25;64.38;97849.59;2258533;79;20939;-84
2022/04/25 12:53:08;;;;;;;11.40;10.30;;;;;;;14.21;64.72;97857.09;2258993;79;20923;-82
2022/04/25 12:56:09;;;;;;;11.78;10.58;;;;;;;14.16;64.09;97861.56;2258224;79;20958;-81
2022/04/25 12:59:09;;;;;;;11.83;10.30;;;;;;;14.11;64.17;97863.41;2258267;79;21062;-81
2022/04/25 13:02:11;;;;;;;12.65;11.33;;;;;;;14.10;65.01;97868.23;2259931;79;20931;-83
2022/04/25 13:05:10;;;;;;;11.70;10.60;;;;;;;14.11;64.83;97869.52;2259154;79;20997;-82
2022/04/25 13:08:10;;;;;;;12.13;10.30;;;;;;;14.07;64.30;97873.54;2257749;79;20990;-81
2022/04/25 13:11:11;;;;;;;30.37;17.75;;;;;;;14.03;64.30;97876.22;2259852;79;21010;-84
2022/04/25 13:14:11;;;;;;;58.00;23.90;;;;;;;13.94;63.96;97878.12;2261182;79;20986;-83
2022/04/25 13:17:12;;;;;;;56.83;24.27;;;;;;;13.88;64.15;97876.92;2260659;79;21010;-83
2022/04/25 13:20:12;;;;;;;25.52;14.68;;;;;;;13.84;64.36;97876.08;2259307;79;20962;-84
2022/04/25 13:23:12;;;;;;;11.53;10.32;;;;;;;13.84;64.12;97881.32;2258249;79;20970;-82
2022/04/25 13:26:13;;;;;;;12.45;10.13;;;;;;;13.88;63.98;97890.04;2258591;78;20951;-84
2022/04/25 13:29:16;;;;;;;12.58;10.65;;;;;;;13.89;64.51;97885.22;2259079;79;20971;-83
2022/04/25 13:32:16;;;;;;;9.93;8.93;;;;;;;13.94;65.07;97890.80;2259304;79;20965;-82
2022/04/25 13:35:17;;;;;;;12.20;10.53;;;;;;;13.97;64.87;97893.82;2258500;79;20918;-83
2022/04/25 13:38:17;;;;;;;12.05;10.40;;;;;;;13.95;65.80;97905.66;2260893;79;21251;-83
2022/04/25 13:41:19;;;;;;;16.52;10.13;;;;;;;13.89;68.38;97915.38;2260839;79;21089;-82
2022/04/25 13:44:18;;;;;;;12.33;9.78;;;;;;;13.65;68.79;97921.84;2259054;79;21280;-83
2022/04/25 13:47:21;;;;;;;10.98;9.15;;;;;;;13.49;69.45;97915.96;2260683;79;21272;-81
2022/04/25 13:50:21;;;;;;;12.13;8.83;;;;;;;13.36;70.09;97927.06;2260268;79;20986;-81
2022/04/25 13:53:22;;;;;;;7.80;7.03;;;;;;;13.15;71.01;97927.32;2259726;79;20930;-81
2022/04/25 13:56:22;;;;;;;12.70;7.87;;;;;;;12.98;71.86;97930.12;2261005;79;20876;-83
2022/04/25 13:59:22;;;;;;;10.08;7.42;;;;;;;12.79;72.59;97929.91;2260140;79;21012;-82
2022/04/25 14:05:42;;;;;;;8.30;6.95;;;;;;;12.55;73.56;97941.97;2260232;78;20943;-82
2022/04/25 14:08:43;;;;;;;18.50;10.13;;;;;;;12.46;74.68;97948.16;2259692;79;21017;-82
2022/04/25 14:11:42;;;;;;;10.85;9.38;;;;;;;12.36;75.02;97945.20;2258449;79;21011;-82
2022/04/25 14:14:43;;;;;;;15.53;11.12;;;;;;;12.29;76.03;97949.63;2259100;79;20947;-81
2022/04/25 14:17:43;;;;;;;16.65;14.98;;;;;;;12.18;76.36;97946.25;2258608;79;20958;-81
2022/04/25 14:20:44;;;;;;;12.00;10.40;;;;;;;12.17;76.28;97958.03;2259037;79;21417;-82
2022/04/25 14:23:44;;;;;;;11.38;9.63;;;;;;;12.15;76.25;97965.02;2259872;79;20986;-81
2022/04/25 14:26:48;;;;;;;10.40;9.25;;;;;;;12.11;76.35;97961.53;2252873;79;20959;-81
2022/04/25 14:29:47;;;;;;;12.23;10.38;;;;;;;12.10;76.08;97963.28;2225625;79;20983;-81
2022/04/25 14:32:47;;;;;;;11.33;9.80;;;;;;;12.07;75.80;97962.44;2247333;79;21868;-81
2022/04/25 14:35:47;;;;;;;11.15;9.95;;;;;;;12.09;75.55;97958.94;2247859;79;20971;-81
2022/04/25 14:38:48;;;;;;;11.50;9.70;;;;;;;12.12;75.27;97964.14;2247015;79;20908;-82
2022/04/25 14:41:48;;;;;;;10.55;9.40;;;;;;;12.20;75.16;97967.16;2247843;79;20884;-79
2022/04/25 14:44:49;;;;;;;7.78;6.50;;;;;;;12.30;74.74;97964.89;2248156;79;20923;-79
2022/04/25 14:47:49;;;;;;;6.47;5.87;;;;;;;12.41;74.54;97968.28;2247592;79;21295;-82
2022/04/25 14:54:20;;;;;;;11.68;8.50;;;;;;;12.82;74.52;97970.91;2247143;78;20982;-80
2022/04/25 14:57:18;;;;;;;13.00;9.05;;;;;;;13.16;73.77;97968.36;2246174;79;20943;-82